Time;durP1;ratioP1;P1;durP2;ratioP2;P2;SDS_P1;SDS_P2;PMS_P1;PMS_P2;Temp;Humidity;BMP_temperature;BMP_pressure;BME280_temperature;BME280_humidity;BME280_pressure;Samples;Min_cycle;Max_cycle;Signal;HPM_P1;HPM_P2
2022/02/01 00:02:34;;;;;;;5.15;1.95;;;6.50;99.90;;;;;;5056833;28;20143;-58
2022/02/01 00:05:12;;;;;;;6.00;1.70;;;6.50;99.90;;;;;;5061293;28;20048;-58
2022/02/01 00:07:54;;;;;;;7.20;2.05;;;6.50;99.90;;;;;;5061078;28;20080;-58
2022/02/01 00:10:38;;;;;;;5.47;2.08;;;6.50;99.90;;;;;;5055854;28;20072;-58
2022/02/01 00:37:26;;;;;;;6.05;2.20;;;6.70;99.90;;;;;;5040703;28;20037;-58
2022/02/01 00:39:57;;;;;;;4.65;1.67;;;6.70;99.90;;;;;;5055942;28;20040;-59
2022/02/01 00:42:24;;;;;;;3.67;1.30;;;6.70;99.90;;;;;;5050571;28;20103;-58
2022/02/01 00:44:51;;;;;;;2.25;1.10;;;6.80;99.90;;;;;;5057970;28;20049;-58
2022/02/01 00:47:18;;;;;;;4.63;1.20;;;6.80;99.90;;;;;;5055913;28;20407;-59
2022/02/01 00:49:45;;;;;;;4.38;1.40;;;6.80;99.90;;;;;;5048362;28;20117;-59
2022/02/01 00:52:11;;;;;;;3.30;1.40;;;6.80;99.90;;;;;;5058448;28;20350;-58
2022/02/01 00:54:40;;;;;;;2.53;1.38;;;6.90;99.90;;;;;;5053653;28;20395;-58
2022/02/01 00:57:10;;;;;;;3.92;1.75;;;6.80;99.90;;;;;;5057740;28;20084;-58
2022/02/01 00:59:37;;;;;;;4.85;1.50;;;6.90;99.90;;;;;;5054598;28;20082;-59
2022/02/01 01:02:04;;;;;;;4.65;1.30;;;6.90;99.90;;;;;;5059930;28;20515;-58
2022/02/01 01:04:31;;;;;;;5.18;1.50;;;6.90;99.90;;;;;;5058940;28;20058;-59
2022/02/01 01:06:58;;;;;;;5.05;1.33;;;7.00;99.90;;;;;;5062762;28;20078;-58
2022/02/01 01:09:25;;;;;;;4.57;1.17;;;7.00;99.90;;;;;;5059476;28;20135;-57
2022/02/01 01:11:55;;;;;;;2.95;1.15;;;7.00;99.90;;;;;;5057946;28;20075;-57
2022/02/01 01:17:43;;;;;;;4.18;1.55;;;7.00;99.90;;;;;;5059000;28;20247;-55
2022/02/01 01:44:41;;;;;;;5.28;1.55;;;7.10;99.90;;;;;;5055363;28;20687;-57
2022/02/01 01:53:10;;;;;;;3.83;1.25;;;7.10;99.90;;;;;;5062488;28;20076;-57
2022/02/01 01:55:38;;;;;;;8.80;1.83;;;7.10;99.90;;;;;;5061431;28;20570;-57
2022/02/01 01:58:05;;;;;;;7.22;1.80;;;7.10;99.90;;;;;;5066995;28;20040;-58
2022/02/01 02:03:18;;;;;;;6.47;1.60;;;7.00;99.90;;;;;;5066642;28;20450;-58
2022/02/01 02:05:44;;;;;;;4.22;1.55;;;7.00;99.90;;;;;;5064898;28;20056;-57
2022/02/01 02:08:12;;;;;;;3.72;1.50;;;7.00;99.90;;;;;;5055385;28;20594;-57
2022/02/01 02:10:50;;;;;;;4.65;1.50;;;7.10;99.90;;;;;;5052785;28;20080;-58
2022/02/01 02:15:55;;;;;;;4.43;1.23;;;7.10;99.90;;;;;;5065140;28;20420;-58
2022/02/01 02:18:23;;;;;;;4.22;1.40;;;7.10;99.90;;;;;;5049234;28;20394;-57
2022/02/01 02:20:56;;;;;;;3.40;1.25;;;7.10;99.90;;;;;;5049657;28;20554;-58
2022/02/01 02:23:23;;;;;;;6.45;2.28;;;7.00;99.90;;;;;;5066159;28;20527;-58
2022/02/01 02:25:50;;;;;;;5.55;3.10;;;6.90;99.90;;;;;;5058889;28;20126;-58
2022/02/01 02:28:17;;;;;;;4.05;1.50;;;6.80;99.90;;;;;;5049106;28;20049;-58
2022/02/01 02:30:45;;;;;;;4.40;1.77;;;6.80;99.90;;;;;;5047091;28;20147;-58
2022/02/01 02:33:14;;;;;;;4.35;1.60;;;6.70;99.90;;;;;;5059116;28;20045;-57
2022/02/01 02:38:47;;;;;;;4.82;1.70;;;6.70;99.90;;;;;;5055891;28;20139;-58
2022/02/01 02:46:36;;;;;;;5.95;1.70;;;6.70;99.90;;;;;;5044990;28;20057;-57
2022/02/01 02:49:10;;;;;;;5.40;2.22;;;6.80;99.90;;;;;;5048791;28;20135;-57
2022/02/01 02:51:37;;;;;;;7.38;1.70;;;6.80;99.90;;;;;;5044260;28;20087;-58
2022/02/01 02:54:08;;;;;;;3.15;1.30;;;6.80;99.90;;;;;;5047469;28;20128;-57
2022/02/01 02:56:35;;;;;;;3.78;1.23;;;6.90;99.90;;;;;;5059875;28;20121;-57
2022/02/01 02:59:03;;;;;;;4.25;1.40;;;6.90;99.90;;;;;;5057883;28;20136;-58
2022/02/01 03:01:30;;;;;;;5.43;1.70;;;6.90;99.90;;;;;;5065934;28;20076;-57
2022/02/01 03:03:57;;;;;;;5.15;1.80;;;7.00;99.90;;;;;;5057177;28;20095;-58
2022/02/01 03:06:23;;;;;;;7.60;2.55;;;7.00;99.90;;;;;;5046284;28;20159;-58
2022/02/01 03:08:50;;;;;;;5.15;1.80;;;7.00;99.90;;;;;;5046953;28;20129;-58
2022/02/01 03:11:17;;;;;;;6.43;1.70;;;7.00;99.90;;;;;;5046305;28;20512;-56
2022/02/01 03:13:58;;;;;;;5.88;1.60;;;7.00;99.90;;;;;;5046538;28;20053;-58
2022/02/01 03:16:37;;;;;;;5.38;1.98;;;7.00;99.90;;;;;;5049905;28;20510;-58
2022/02/01 03:21:49;;;;;;;5.93;2.00;;;7.10;99.90;;;;;;5065891;28;20636;-59
2022/02/01 03:24:16;;;;;;;7.32;2.03;;;7.10;99.90;;;;;;5065059;28;20091;-59
2022/02/01 03:26:42;;;;;;;6.22;2.13;;;7.20;99.90;;;;;;5065117;28;20080;-58
2022/02/01 03:29:09;;;;;;;8.35;2.50;;;7.20;99.90;;;;;;5062096;28;20430;-59
2022/02/01 03:31:36;;;;;;;6.20;2.17;;;7.20;99.90;;;;;;5061711;28;20041;-58
2022/02/01 03:34:03;;;;;;;11.00;2.35;;;7.20;99.90;;;;;;5064470;28;20045;-58
2022/02/01 03:36:29;;;;;;;8.25;2.53;;;7.20;99.90;;;;;;5056790;28;20471;-58
2022/02/01 03:38:58;;;;;;;3.40;1.95;;;7.30;99.90;;;;;;5054650;28;20649;-59
2022/02/01 03:41:25;;;;;;;4.72;2.20;;;7.30;99.90;;;;;;5065517;28;20091;-58
2022/02/01 03:43:51;;;;;;;5.15;1.85;;;7.30;99.90;;;;;;5063054;28;20086;-58
2022/02/01 03:46:20;;;;;;;5.35;1.75;;;7.40;99.90;;;;;;5061266;28;20060;-58
2022/02/01 03:48:48;;;;;;;5.30;1.98;;;7.40;99.90;;;;;;5055108;28;20045;-59
2022/02/01 03:51:15;;;;;;;7.63;2.35;;;7.40;99.90;;;;;;5046614;28;20558;-58
2022/02/01 03:53:41;;;;;;;4.40;1.90;;;7.40;99.90;;;;;;5057155;28;20480;-58
2022/02/01 03:56:08;;;;;;;5.80;1.83;;;7.50;99.90;;;;;;5056357;28;20072;-58
2022/02/01 03:58:35;;;;;;;5.20;2.03;;;7.50;99.90;;;;;;5055878;28;20072;-58
2022/02/01 04:01:02;;;;;;;6.95;2.65;;;7.50;99.90;;;;;;5044986;28;20140;-59
2022/02/01 04:03:29;;;;;;;7.10;2.47;;;7.50;99.90;;;;;;5054946;28;20131;-59
2022/02/01 04:05:56;;;;;;;6.70;2.13;;;7.50;99.90;;;;;;5065066;28;20601;-58
2022/02/01 04:08:24;;;;;;;6.68;2.30;;;7.50;99.90;;;;;;5057658;28;20174;-59
2022/02/01 04:10:51;;;;;;;9.05;2.70;;;7.50;99.90;;;;;;5047750;28;20041;-57
2022/02/01 04:13:19;;;;;;;8.75;2.17;;;7.60;99.90;;;;;;5064532;28;20140;-58
2022/02/01 04:15:46;;;;;;;10.48;2.75;;;7.60;99.90;;;;;;5063636;28;20080;-59
2022/02/01 04:18:13;;;;;;;7.30;2.45;;;7.60;99.90;;;;;;5045922;28;20479;-58
2022/02/01 04:20:40;;;;;;;4.72;2.28;;;7.60;99.90;;;;;;5064624;28;20135;-56
2022/02/01 04:23:07;;;;;;;8.50;2.38;;;7.70;99.90;;;;;;5064901;28;20068;-59
2022/02/01 04:25:33;;;;;;;6.75;2.28;;;7.70;99.90;;;;;;5057344;28;20072;-58
2022/02/01 04:28:01;;;;;;;9.65;2.92;;;7.70;99.90;;;;;;5054770;28;20045;-59
2022/02/01 04:30:28;;;;;;;5.30;2.42;;;7.80;99.90;;;;;;5066206;28;20140;-59
2022/02/01 04:32:55;;;;;;;7.05;2.53;;;7.80;99.90;;;;;;5054151;28;20139;-59
2022/02/01 04:35:27;;;;;;;6.22;3.00;;;7.80;99.90;;;;;;5068817;28;20041;-59
2022/02/01 04:37:55;;;;;;;4.85;2.45;;;7.80;99.90;;;;;;5059292;28;20049;-58
2022/02/01 04:40:23;;;;;;;8.32;2.63;;;7.90;99.90;;;;;;5068300;28;20458;-59
2022/02/01 04:42:51;;;;;;;7.25;2.78;;;7.90;99.90;;;;;;5063507;28;20131;-59
2022/02/01 04:45:20;;;;;;;7.68;2.60;;;7.90;99.90;;;;;;5061661;28;20159;-58
2022/02/01 04:47:47;;;;;;;8.80;2.45;;;7.90;99.90;;;;;;5058238;28;20454;-58
2022/02/01 04:50:23;;;;;;;4.80;2.40;;;7.90;99.90;;;;;;5052993;28;20231;-59
2022/02/01 04:52:53;;;;;;;7.35;3.67;;;7.90;99.90;;;;;;5055216;28;20078;-59
2022/02/01 04:55:24;;;;;;;11.98;3.35;;;7.90;99.90;;;;;;5066556;28;20143;-58
2022/02/01 04:57:54;;;;;;;5.28;2.42;;;8.00;99.90;;;;;;5051700;28;20132;-58
2022/02/01 05:00:30;;;;;;;7.45;2.95;;;8.00;99.90;;;;;;5050292;28;20689;-59
2022/02/01 05:02:58;;;;;;;10.15;3.28;;;8.00;99.90;;;;;;5056190;28;20072;-59
2022/02/01 05:05:29;;;;;;;9.13;3.00;;;8.00;99.90;;;;;;5063919;28;20106;-59
2022/02/01 05:08:04;;;;;;;7.35;2.35;;;8.10;99.90;;;;;;5068622;28;20045;-59
2022/02/01 05:10:34;;;;;;;10.18;3.50;;;8.00;99.90;;;;;;5060044;28;20076;-59
2022/02/01 05:15:36;;;;;;;9.70;3.30;;;8.10;99.90;;;;;;5054701;28;20641;-55
2022/02/01 05:18:03;;;;;;;10.80;3.85;;;8.10;99.90;;;;;;5049242;28;20040;-59
2022/02/01 05:20:56;;;;;;;12.32;3.08;;;8.10;99.90;;;;;;5056258;28;20045;-59
2022/02/01 05:23:23;;;;;;;6.00;2.95;;;8.10;99.90;;;;;;5066795;28;20049;-58
2022/02/01 05:25:50;;;;;;;8.02;2.60;;;8.20;99.90;;;;;;5067841;28;20095;-59
2022/02/01 05:28:18;;;;;;;7.63;2.47;;;8.20;99.90;;;;;;5064825;28;20525;-57
2022/02/01 05:30:45;;;;;;;7.18;2.58;;;8.20;99.90;;;;;;5045152;28;20045;-59
2022/02/01 05:33:11;;;;;;;12.13;3.45;;;8.20;99.90;;;;;;5052244;28;20123;-59
2022/02/01 05:35:38;;;;;;;5.88;2.75;;;8.20;99.90;;;;;;5061337;28;20465;-59
2022/02/01 05:38:05;;;;;;;5.15;2.65;;;8.20;99.90;;;;;;4989487;28;20076;-58
2022/02/01 05:40:31;;;;;;;6.38;2.30;;;8.20;99.90;;;;;;5045947;28;20084;-58
2022/02/01 05:43:02;;;;;;;9.18;2.70;;;8.30;99.90;;;;;;5056719;28;20132;-57
2022/02/01 05:45:29;;;;;;;5.95;2.38;;;8.30;99.90;;;;;;5068003;28;20054;-59
2022/02/01 05:47:56;;;;;;;8.38;2.40;;;8.30;99.90;;;;;;5069279;28;20048;-59
2022/02/01 05:50:23;;;;;;;4.93;2.03;;;8.20;99.90;;;;;;5026945;28;20061;-59
2022/02/01 05:52:50;;;;;;;7.30;2.17;;;8.30;99.90;;;;;;5060324;28;20072;-59
2022/02/01 05:55:17;;;;;;;9.30;2.88;;;8.30;99.90;;;;;;5049201;28;20146;-59
2022/02/01 05:57:44;;;;;;;4.95;2.28;;;8.30;99.90;;;;;;5062678;28;20063;-59
2022/02/01 06:00:11;;;;;;;8.32;2.22;;;8.30;99.90;;;;;;5056645;28;20497;-59
2022/02/01 06:02:40;;;;;;;6.88;2.67;;;8.30;99.90;;;;;;5048136;28;20040;-58
2022/02/01 06:05:07;;;;;;;6.97;2.45;;;8.30;99.90;;;;;;5062571;28;20080;-59
2022/02/01 06:07:34;;;;;;;8.55;2.90;;;8.30;99.90;;;;;;5054326;28;20074;-59
2022/02/01 06:10:03;;;;;;;8.35;2.70;;;8.30;99.90;;;;;;5059377;28;20431;-59
2022/02/01 06:12:41;;;;;;;8.05;2.40;;;8.30;99.90;;;;;;5059271;28;20427;-59
2022/02/01 06:15:08;;;;;;;5.15;2.20;;;8.30;99.90;;;;;;5066555;28;20056;-59
2022/02/01 06:17:35;;;;;;;8.63;2.45;;;8.30;99.90;;;;;;5057160;28;20109;-59
2022/02/01 06:20:08;;;;;;;6.18;2.45;;;8.40;99.90;;;;;;5050319;28;20049;-59
2022/02/01 06:22:34;;;;;;;5.57;2.22;;;8.30;99.90;;;;;;5050553;28;20103;-59
2022/02/01 06:25:02;;;;;;;8.88;2.45;;;8.40;99.90;;;;;;5062927;28;20499;-58
2022/02/01 06:27:29;;;;;;;7.50;2.50;;;8.40;99.90;;;;;;5052317;28;20130;-58
2022/02/01 06:29:55;;;;;;;6.60;2.20;;;8.40;99.90;;;;;;5059938;28;20179;-58
2022/02/01 06:32:22;;;;;;;10.93;2.70;;;8.40;99.90;;;;;;5058766;28;20139;-58
2022/02/01 06:34:49;;;;;;;5.90;2.08;;;8.40;99.90;;;;;;5059820;28;20084;-59
2022/02/01 06:37:16;;;;;;;7.93;2.28;;;8.40;99.90;;;;;;5064470;28;20078;-59
2022/02/01 06:39:42;;;;;;;8.98;2.33;;;8.50;99.90;;;;;;5059216;28;20468;-58
2022/02/01 06:42:09;;;;;;;6.85;2.38;;;8.50;99.90;;;;;;5048354;28;20121;-59
2022/02/01 06:44:37;;;;;;;8.52;2.10;;;8.50;99.90;;;;;;5061327;28;20051;-58
2022/02/01 06:47:04;;;;;;;5.90;2.35;;;8.50;99.90;;;;;;5052586;28;20083;-59
2022/02/01 06:49:31;;;;;;;6.65;2.28;;;8.50;99.90;;;;;;5056495;28;20624;-59
2022/02/01 06:51:59;;;;;;;7.18;2.17;;;8.50;99.90;;;;;;5059990;28;20076;-59
2022/02/01 06:54:25;;;;;;;6.07;1.60;;;8.60;99.90;;;;;;5061003;28;20518;-59
2022/02/01 06:56:52;;;;;;;5.78;1.88;;;8.60;99.90;;;;;;5056444;28;20079;-58
2022/02/01 06:59:23;;;;;;;7.93;2.33;;;8.60;99.90;;;;;;5063413;28;20157;-58
2022/02/01 07:01:50;;;;;;;5.13;2.17;;;8.60;99.90;;;;;;5056518;28;20145;-57
2022/02/01 07:04:17;;;;;;;8.73;2.00;;;8.70;99.90;;;;;;5058894;28;20059;-59
2022/02/01 07:06:44;;;;;;;6.68;2.20;;;8.70;99.90;;;;;;5054396;28;20135;-58
2022/02/01 07:09:11;;;;;;;7.28;1.90;;;8.70;99.90;;;;;;5053278;28;20044;-59
2022/02/01 07:11:39;;;;;;;6.07;1.83;;;8.80;99.90;;;;;;5068386;28;20063;-59
2022/02/01 07:14:06;;;;;;;5.40;1.98;;;8.80;99.90;;;;;;5066771;28;20143;-59
2022/02/01 07:16:32;;;;;;;7.28;1.75;;;8.80;99.90;;;;;;5067033;28;20083;-59
2022/02/01 07:18:59;;;;;;;6.50;2.25;;;8.70;99.90;;;;;;5059765;28;20052;-59
2022/02/01 07:21:28;;;;;;;8.52;2.17;;;8.80;99.90;;;;;;5067182;28;20145;-59
2022/02/01 07:23:55;;;;;;;5.07;1.73;;;8.70;99.90;;;;;;5066751;28;20160;-59
2022/02/01 07:26:22;;;;;;;4.47;1.65;;;8.70;99.90;;;;;;5059169;28;20094;-57
2022/02/01 07:28:49;;;;;;;6.57;1.67;;;8.60;99.90;;;;;;5057731;28;20150;-60
2022/02/01 07:31:17;;;;;;;3.70;1.55;;;8.60;99.90;;;;;;5058802;28;20554;-59
2022/02/01 07:33:44;;;;;;;5.65;1.80;;;8.60;99.90;;;;;;5058404;28;20085;-59
2022/02/01 07:36:16;;;;;;;4.47;1.92;;;8.60;99.90;;;;;;5058510;28;20060;-59
2022/02/01 07:38:43;;;;;;;4.75;1.83;;;8.60;99.90;;;;;;5058665;28;20079;-59
2022/02/01 07:41:10;;;;;;;5.40;2.05;;;8.60;99.90;;;;;;5058980;28;20139;-59
2022/02/01 07:43:36;;;;;;;7.25;2.17;;;8.50;99.90;;;;;;5057943;28;20334;-59
2022/02/01 07:46:09;;;;;;;5.60;1.88;;;8.50;99.90;;;;;;5058541;28;20227;-59
2022/02/01 07:48:36;;;;;;;8.05;2.05;;;8.60;99.90;;;;;;5054404;28;20071;-59
2022/02/01 07:51:03;;;;;;;4.32;1.40;;;8.60;99.90;;;;;;5040603;28;20103;-59
2022/02/01 07:53:30;;;;;;;6.07;1.80;;;8.60;99.90;;;;;;5046817;28;20143;-59
2022/02/01 07:55:57;;;;;;;4.45;1.55;;;8.60;99.90;;;;;;5059523;28;20048;-59
2022/02/01 07:58:23;;;;;;;4.93;1.60;;;8.70;99.90;;;;;;5057528;28;20217;-57
2022/02/01 08:00:50;;;;;;;5.05;1.83;;;8.70;99.90;;;;;;5056230;28;20091;-59
2022/02/01 08:03:17;;;;;;;3.47;1.50;;;8.80;99.90;;;;;;5058384;28;20151;-59
2022/02/01 08:05:44;;;;;;;4.22;1.23;;;8.80;99.90;;;;;;5058762;28;20048;-59
2022/02/01 08:08:12;;;;;;;5.70;1.40;;;8.90;99.90;;;;;;5058201;28;20135;-58
2022/02/01 08:10:50;;;;;;;4.18;1.60;;;8.90;99.90;;;;;;5058551;28;20143;-59
2022/02/01 08:14:09;;;;;;;5.95;1.50;;;9.00;99.90;;;;;;5057728;28;20128;-59
2022/02/01 08:16:36;;;;;;;5.13;1.38;;;9.00;99.90;;;;;;5060520;28;20068;-60
2022/02/01 08:19:14;;;;;;;3.92;1.30;;;9.00;99.90;;;;;;5048378;28;20075;-57
2022/02/01 08:21:52;;;;;;;7.53;2.05;;;9.00;99.90;;;;;;5062623;28;20316;-59
2022/02/01 08:24:19;;;;;;;3.63;1.23;;;9.10;99.90;;;;;;5060414;28;20162;-59
2022/02/01 08:26:46;;;;;;;5.20;1.55;;;9.10;99.90;;;;;;5055884;28;20148;-59
2022/02/01 08:29:14;;;;;;;6.50;1.83;;;9.10;99.90;;;;;;5050519;28;20527;-57
2022/02/01 08:31:45;;;;;;;3.63;1.58;;;9.10;99.90;;;;;;5037853;28;20157;-58
2022/02/01 08:34:12;;;;;;;5.13;1.65;;;9.20;99.90;;;;;;5051355;28;20093;-58
2022/02/01 08:36:38;;;;;;;4.20;1.20;;;9.20;99.90;;;;;;5057376;28;20084;-58
2022/02/01 08:39:05;;;;;;;7.38;1.80;;;9.30;99.90;;;;;;5056693;28;20116;-59
2022/02/01 08:41:32;;;;;;;6.95;1.60;;;9.30;99.90;;;;;;5056670;28;20148;-58
2022/02/01 08:44:00;;;;;;;3.28;1.42;;;9.30;99.90;;;;;;5055116;28;20555;-58
2022/02/01 08:46:27;;;;;;;5.32;1.45;;;9.40;99.90;;;;;;5055168;28;20463;-59
2022/02/01 08:48:54;;;;;;;4.97;1.58;;;9.50;99.90;;;;;;5055594;28;20071;-58
2022/02/01 08:51:23;;;;;;;5.78;1.83;;;9.50;99.90;;;;;;5057016;28;20533;-58
2022/02/01 08:53:56;;;;;;;7.03;2.60;;;9.50;99.90;;;;;;5054612;28;20053;-58
2022/02/01 08:59:26;;;;;;;3.33;1.10;;;9.60;99.90;;;;;;5048543;28;20055;-58
2022/02/01 09:01:53;;;;;;;3.03;1.40;;;9.60;99.90;;;;;;5051936;28;20083;-58
2022/02/01 09:04:20;;;;;;;4.80;1.55;;;9.60;99.90;;;;;;5061248;28;20083;-58
2022/02/01 09:06:47;;;;;;;4.00;1.25;;;9.70;99.90;;;;;;5059931;28;20151;-56
2022/02/01 09:09:17;;;;;;;3.13;1.10;;;9.70;99.90;;;;;;5057360;28;20124;-58
2022/02/01 09:11:45;;;;;;;2.72;1.27;;;9.70;99.90;;;;;;5056634;28;20080;-58
2022/02/01 09:14:12;;;;;;;4.55;1.20;;;9.70;99.90;;;;;;5059917;28;20432;-58
2022/02/01 09:16:39;;;;;;;3.50;1.40;;;9.80;99.90;;;;;;5063778;28;20303;-58
2022/02/01 09:19:07;;;;;;;2.50;1.13;;;9.80;99.90;;;;;;5060308;28;20052;-58
2022/02/01 09:21:34;;;;;;;1.90;1.13;;;9.90;99.90;;;;;;5063694;28;20056;-58
2022/02/01 09:24:00;;;;;;;2.72;1.30;;;9.90;99.90;;;;;;5061411;28;20298;-58
2022/02/01 09:26:27;;;;;;;3.70;1.30;;;10.00;99.90;;;;;;5063844;28;20167;-58
2022/02/01 09:29:14;;;;;;;4.13;1.30;;;10.00;99.90;;;;;;5062739;28;20452;-58
2022/02/01 09:31:41;;;;;;;3.95;2.03;;;10.00;99.90;;;;;;5068684;28;20129;-58
2022/02/01 09:34:07;;;;;;;4.82;1.48;;;10.00;99.90;;;;;;5066957;28;20056;-58
2022/02/01 09:36:34;;;;;;;2.55;1.33;;;10.00;99.90;;;;;;5066013;28;20128;-58
2022/02/01 09:39:01;;;;;;;4.05;1.45;;;10.10;99.90;;;;;;5069599;28;20168;-58
2022/02/01 09:41:29;;;;;;;4.63;1.58;;;10.10;99.90;;;;;;5061379;28;20522;-59
2022/02/01 09:43:56;;;;;;;4.00;1.50;;;10.10;99.90;;;;;;5059494;28;20107;-58
2022/02/01 09:46:25;;;;;;;2.35;1.17;;;10.10;99.90;;;;;;5060178;28;20048;-58
2022/02/01 09:48:52;;;;;;;2.88;1.48;;;10.20;99.90;;;;;;5059587;28;20092;-58
2022/02/01 09:51:19;;;;;;;4.88;1.48;;;10.20;99.90;;;;;;5059281;28;20446;-57
2022/02/01 09:54:05;;;;;;;3.55;1.52;;;10.30;99.90;;;;;;5059163;28;20063;-58
2022/02/01 09:56:32;;;;;;;2.25;1.20;;;10.40;99.90;;;;;;5060112;28;20447;-58
2022/02/01 09:58:59;;;;;;;4.55;1.17;;;10.40;99.90;;;;;;5059120;28;20135;-58
2022/02/01 10:01:31;;;;;;;4.78;1.65;;;10.50;99.90;;;;;;5070241;28;20117;-58
2022/02/01 10:04:06;;;;;;;3.25;1.45;;;10.60;99.90;;;;;;5062836;28;20041;-58
2022/02/01 10:06:41;;;;;;;3.83;1.13;;;10.60;99.90;;;;;;5057430;28;20326;-58
2022/02/01 10:09:28;;;;;;;6.60;1.65;;;10.70;99.90;;;;;;5058833;28;20067;-57
2022/02/01 10:11:55;;;;;;;2.75;1.10;;;10.80;99.90;;;;;;5040180;28;20077;-58
2022/02/01 10:14:31;;;;;;;2.63;1.30;;;10.80;99.90;;;;;;5057774;28;20600;-57
2022/02/01 10:17:01;;;;;;;2.80;1.40;;;10.90;99.90;;;;;;5058366;28;20056;-58
2022/02/01 10:19:27;;;;;;;3.72;1.15;;;10.90;99.90;;;;;;5059390;28;20206;-58
2022/02/01 10:21:59;;;;;;;3.20;1.25;;;11.00;99.90;;;;;;5059738;28;20092;-58
2022/02/01 10:24:35;;;;;;;4.22;1.13;;;11.00;99.90;;;;;;5058961;28;20568;-58
2022/02/01 10:27:09;;;;;;;4.00;1.52;;;11.00;99.90;;;;;;5058118;28;20116;-57
2022/02/01 10:29:38;;;;;;;1.67;1.02;;;11.10;99.90;;;;;;5057842;28;20141;-57
2022/02/01 10:32:19;;;;;;;2.40;1.15;;;11.20;99.90;;;;;;5063764;28;20495;-58
2022/02/01 10:34:48;;;;;;;2.17;1.00;;;11.30;99.90;;;;;;5059263;28;20102;-58
2022/02/01 10:37:35;;;;;;;2.30;1.30;;;11.30;99.90;;;;;;5058992;28;20099;-58
2022/02/01 10:40:05;;;;;;;3.50;1.40;;;11.30;99.90;;;;;;5062387;28;20514;-58
2022/02/01 10:42:32;;;;;;;2.88;1.25;;;11.40;99.90;;;;;;5075393;28;20246;-58
2022/02/01 10:44:59;;;;;;;2.53;1.38;;;11.40;99.90;;;;;;5064347;28;20055;-57
2022/02/01 10:47:43;;;;;;;2.28;1.40;;;11.50;99.90;;;;;;5072195;28;20404;-58
2022/02/01 10:50:13;;;;;;;3.08;1.45;;;11.40;99.90;;;;;;5059704;28;20179;-58
2022/02/01 10:52:45;;;;;;;3.45;1.40;;;11.50;99.90;;;;;;5059539;28;20139;-58
2022/02/01 10:55:12;;;;;;;2.75;1.58;;;11.60;99.90;;;;;;5059140;28;20414;-57
2022/02/01 10:57:39;;;;;;;2.88;1.60;;;11.70;99.90;;;;;;5059058;28;20475;-54
2022/02/01 11:00:11;;;;;;;2.20;1.13;;;11.70;99.90;;;;;;5057056;28;20044;-58
2022/02/01 11:02:45;;;;;;;2.47;1.30;;;11.80;99.90;;;;;;5059186;28;20468;-57
2022/02/01 11:05:13;;;;;;;2.40;1.40;;;11.90;99.90;;;;;;5058976;28;20124;-57
2022/02/01 11:08:00;;;;;;;4.50;1.60;;;12.00;99.90;;;;;;5059131;28;20060;-58
2022/02/01 11:10:27;;;;;;;5.13;1.50;;;12.00;99.90;;;;;;5058859;28;20044;-58
2022/02/01 11:13:03;;;;;;;2.53;1.20;;;12.10;99.90;;;;;;5057199;28;20149;-58
2022/02/01 11:15:30;;;;;;;3.42;1.30;;;12.20;99.90;;;;;;5057274;28;20064;-58
2022/02/01 11:18:10;;;;;;;2.65;1.27;;;12.30;99.90;;;;;;5058895;28;20765;-58
2022/02/01 11:20:39;;;;;;;2.25;1.30;;;12.30;99.90;;;;;;5059128;28;20080;-58
2022/02/01 11:23:07;;;;;;;2.60;1.23;;;12.40;99.90;;;;;;5058327;28;20448;-57
2022/02/01 11:25:55;;;;;;;3.42;1.63;;;12.50;99.90;;;;;;5066793;28;20055;-57
2022/02/01 11:31:28;;;;;;;2.13;1.08;;;12.50;99.90;;;;;;5043850;28;20408;-58
2022/02/01 11:33:55;;;;;;;2.70;1.45;;;12.60;99.90;;;;;;5059671;28;20098;-58
2022/02/01 11:36:22;;;;;;;2.55;1.08;;;12.60;99.90;;;;;;5058307;28;20083;-58
2022/02/01 11:38:55;;;;;;;5.82;1.17;;;12.70;99.90;;;;;;5057686;28;20137;-58
2022/02/01 11:41:39;;;;;;;1.67;1.00;;;12.70;99.90;;;;;;5059375;28;20125;-58
2022/02/01 11:44:29;;;;;;;2.25;1.13;;;12.80;99.90;;;;;;5057065;28;20116;-58
2022/02/01 11:47:12;;;;;;;2.13;1.20;;;12.90;99.90;;;;;;5058368;28;20052;-57
2022/02/01 11:49:56;;;;;;;1.50;1.00;;;12.90;99.90;;;;;;5048764;28;20103;-58
2022/02/01 11:52:23;;;;;;;2.47;1.00;;;12.90;99.90;;;;;;5038709;28;20165;-58
2022/02/01 11:55:05;;;;;;;2.88;1.15;;;13.00;99.90;;;;;;5056651;28;20111;-58
2022/02/01 11:57:52;;;;;;;1.92;1.02;;;13.20;99.90;;;;;;5058981;28;20080;-58
2022/02/01 12:00:25;;;;;;;1.63;0.98;;;13.30;99.90;;;;;;5045997;28;20609;-58
2022/02/01 12:02:58;;;;;;;1.45;0.75;;;13.40;99.90;;;;;;5038630;28;20083;-58
2022/02/01 12:05:33;;;;;;;1.98;0.90;;;13.60;99.90;;;;;;5058830;28;20056;-58
2022/02/01 12:08:09;;;;;;;2.10;0.80;;;13.70;99.90;;;;;;5058727;28;20091;-58
2022/02/01 12:10:43;;;;;;;1.38;0.70;;;13.90;99.90;;;;;;5058225;28;20337;-58
2022/02/01 12:13:14;;;;;;;3.08;1.20;;;13.90;99.90;;;;;;5058354;28;20316;-58
2022/02/01 12:15:42;;;;;;;4.50;1.27;;;13.90;99.90;;;;;;5057287;28;20094;-58
2022/02/01 12:18:33;;;;;;;1.58;0.90;;;14.00;99.90;;;;;;5065463;28;20472;-60
2022/02/01 12:21:37;;;;;;;3.17;1.00;;;14.00;99.90;;;;;;5047671;28;20088;-58
2022/02/01 12:24:04;;;;;;;3.17;0.80;;;14.00;99.90;;;;;;5036461;28;20095;-58
2022/02/01 12:26:39;;;;;;;2.50;1.33;;;14.00;99.90;;;;;;5058024;28;20167;-57
2022/02/01 12:29:08;;;;;;;1.92;0.90;;;14.10;99.90;;;;;;5057538;28;20135;-58
2022/02/01 12:31:38;;;;;;;1.92;0.73;;;14.10;99.90;;;;;;5058656;28;20463;-57
2022/02/01 12:34:15;;;;;;;2.60;1.23;;;14.20;99.90;;;;;;5058154;28;20143;-58
2022/02/01 12:37:12;;;;;;;3.90;1.23;;;14.40;99.90;;;;;;5058453;28;20082;-58
2022/02/01 12:40:08;;;;;;;2.65;1.15;;;14.50;99.90;;;;;;5058140;28;20059;-59
2022/02/01 12:42:50;;;;;;;1.73;0.88;;;14.70;99.90;;;;;;5063426;28;20132;-58
2022/02/01 12:48:04;;;;;;;3.20;1.27;;;14.90;99.90;;;;;;5058266;28;20044;-60
2022/02/01 12:50:31;;;;;;;2.08;0.90;;;15.00;99.90;;;;;;5072530;28;20428;-60
2022/02/01 12:52:59;;;;;;;2.97;1.25;;;15.00;99.90;;;;;;5066080;28;20154;-60
2022/02/01 12:55:26;;;;;;;1.60;1.15;;;15.10;99.90;;;;;;5060824;28;20064;-57
2022/02/01 12:58:16;;;;;;;3.08;1.20;;;15.10;99.90;;;;;;5061675;28;20052;-57
2022/02/01 13:00:49;;;;;;;2.90;1.20;;;15.10;99.90;;;;;;5060594;28;20504;-58
2022/02/01 13:03:16;;;;;;;2.22;1.20;;;15.30;99.90;;;;;;5061307;28;20083;-60
2022/02/01 13:05:43;;;;;;;1.83;1.08;;;15.40;99.90;;;;;;5062806;28;20155;-57
2022/02/01 13:08:35;;;;;;;1.58;0.90;;;15.30;99.90;;;;;;5070127;28;20091;-58
2022/02/01 13:16:35;;;;;;;2.13;0.90;;;15.40;99.90;;;;;;5059844;28;20049;-58
2022/02/01 13:21:37;;;;;;;1.33;0.80;;;15.40;99.90;;;;;;5061913;28;20087;-58
2022/02/01 13:24:05;;;;;;;2.50;0.98;;;15.60;99.90;;;;;;5066143;28;20465;-58
2022/02/01 13:26:42;;;;;;;1.80;1.02;;;15.70;99.90;;;;;;5071405;28;20072;-58
2022/02/01 13:29:11;;;;;;;2.55;0.98;;;15.70;99.90;;;;;;5042024;28;20079;-58
2022/02/01 13:31:39;;;;;;;1.77;0.93;;;15.70;99.90;;;;;;5061345;28;20512;-58
2022/02/01 13:34:09;;;;;;;1.70;0.85;;;15.80;99.90;;;;;;5065279;28;20059;-58
2022/02/01 13:37:00;;;;;;;1.65;0.70;;;16.00;99.90;;;;;;5066110;28;20636;-58
2022/02/01 13:39:35;;;;;;;2.63;0.90;;;16.10;99.90;;;;;;5049755;28;20084;-58
2022/02/01 13:42:07;;;;;;;1.88;1.00;;;16.10;99.90;;;;;;5063326;28;20460;-58
2022/02/01 13:44:55;;;;;;;1.48;0.70;;;16.20;99.90;;;;;;5059046;28;20411;-58
2022/02/01 13:47:39;;;;;;;1.38;0.73;;;16.50;99.90;;;;;;5059328;28;20055;-58
2022/02/01 13:50:17;;;;;;;0.90;0.75;;;16.50;99.90;;;;;;5068410;28;20048;-58
2022/02/01 13:52:52;;;;;;;3.95;0.80;;;16.10;99.90;;;;;;5065277;28;20091;-58
2022/02/01 13:55:22;;;;;;;2.50;1.23;;;15.90;99.90;;;;;;5047080;28;20421;-58
2022/02/01 13:57:48;;;;;;;3.05;0.98;;;15.70;99.90;;;;;;5066242;28;20132;-58
2022/02/01 14:00:15;;;;;;;1.38;0.70;;;15.60;99.90;;;;;;5069021;28;20134;-59
2022/02/01 14:02:51;;;;;;;;;;;15.50;99.90;;;;;;5063500;28;20484;-59
2022/02/01 14:05:24;;;;;;;2.58;1.08;;;15.80;99.90;;;;;;5073040;28;19920;-58
2022/02/01 14:26:54;;;;;;;1.23;0.80;;;15.90;99.90;;;;;;5066112;28;20395;-58
2022/02/01 14:34:36;;;;;;;2.45;1.10;;;15.80;99.90;;;;;;5060483;28;20132;-58
2022/02/01 14:37:10;;;;;;;2.03;0.88;;;15.80;99.90;;;;;;5060348;28;20097;-58
2022/02/01 14:45:08;;;;;;;2.70;0.85;;;16.20;99.90;;;;;;5058602;28;20052;-58
2022/02/01 14:47:35;;;;;;;1.33;0.70;;;16.30;99.90;;;;;;5059701;28;20130;-57
2022/02/01 14:50:03;;;;;;;1.08;0.70;;;16.10;99.90;;;;;;5074247;28;20443;-58
2022/02/01 14:52:29;;;;;;;1.40;0.82;;;16.00;99.90;;;;;;5063286;28;20041;-58
2022/02/01 14:55:03;;;;;;;1.75;0.93;;;16.10;99.90;;;;;;5070326;28;20147;-58
2022/02/01 15:11:23;;;;;;;3.47;1.10;;;16.10;99.90;;;;;;5060585;28;20318;-58
2022/02/01 15:13:51;;;;;;;1.98;0.90;;;15.90;99.90;;;;;;5052182;28;20060;-58
2022/02/01 15:16:26;;;;;;;1.73;1.00;;;15.90;99.90;;;;;;5072914;28;20428;-58
2022/02/01 15:18:52;;;;;;;1.05;0.80;;;16.10;99.90;;;;;;5064313;28;20522;-58
2022/02/01 15:21:19;;;;;;;1.67;0.77;;;15.90;99.90;;;;;;5065218;28;20084;-57
2022/02/01 15:23:49;;;;;;;1.38;0.80;;;16.10;99.90;;;;;;5062751;28;20798;-58
2022/02/01 15:26:16;;;;;;;1.20;0.65;;;16.20;99.90;;;;;;5062470;28;20176;-58
2022/02/01 15:28:44;;;;;;;2.30;0.90;;;16.20;99.90;;;;;;5062339;28;20286;-58